Time;durP1;ratioP1;P1;durP2;ratioP2;P2;SDS_P1;SDS_P2;PMS_P1;PMS_P2;Temp;Humidity;BMP_temperature;BMP_pressure;BME280_temperature;BME280_humidity;BME280_pressure;Samples;Min_cycle;Max_cycle;Signal;HPM_P1;HPM_P2
2021/04/15 00:01:54;;;;;;;10.93;2.97;;;31.60;11.10;;;;;;5097033;28;20084;-68
2021/04/15 00:04:21;;;;;;;12.73;3.40;;;31.60;10.90;;;;;;5101313;28;20161;-68
2021/04/15 00:06:48;;;;;;;12.43;2.90;;;31.60;11.40;;;;;;5098000;28;20068;-68
2021/04/15 00:09:18;;;;;;;11.07;3.13;;;31.60;11.10;;;;;;5099266;28;20081;-68
2021/04/15 00:11:46;;;;;;;16.58;3.13;;;31.30;11.10;;;;;;5099130;28;20558;-66
2021/04/15 00:14:15;;;;;;;9.88;2.58;;;31.30;11.50;;;;;;5082959;28;20595;-69
2021/04/15 00:16:42;;;;;;;16.60;3.95;;;31.10;11.00;;;;;;5093794;28;20080;-68
2021/04/15 00:19:10;;;;;;;17.98;2.88;;;30.80;10.60;;;;;;5100690;28;20073;-68
2021/04/15 00:21:36;;;;;;;12.63;3.20;;;30.70;10.50;;;;;;5099732;28;20072;-68
2021/04/15 00:24:03;;;;;;;12.65;2.88;;;30.60;10.40;;;;;;5096554;28;20104;-67
2021/04/15 00:26:30;;;;;;;20.50;3.38;;;30.40;10.80;;;;;;5100590;28;20076;-68
2021/04/15 00:28:59;;;;;;;16.80;3.50;;;30.20;10.80;;;;;;5078146;28;20527;-67
2021/04/15 00:31:27;;;;;;;14.60;3.10;;;30.20;11.00;;;;;;5101252;28;20064;-66
2021/04/15 00:33:54;;;;;;;20.83;3.13;;;30.20;11.00;;;;;;5098106;28;20079;-67
2021/04/15 00:36:21;;;;;;;13.73;2.88;;;30.20;10.60;;;;;;5095903;28;20100;-66
2021/04/15 00:38:49;;;;;;;15.88;4.25;;;30.10;10.40;;;;;;5100189;28;20116;-66
2021/04/15 00:41:16;;;;;;;15.07;3.13;;;30.10;10.50;;;;;;5098526;28;20065;-67
2021/04/15 00:43:45;;;;;;;10.65;2.90;;;29.80;10.40;;;;;;5095635;28;20594;-67
2021/04/15 00:46:39;;;;;;;17.58;3.20;;;29.80;10.40;;;;;;5099410;28;20148;-68
2021/04/15 00:49:05;;;;;;;15.30;3.20;;;29.80;10.30;;;;;;5095308;28;20409;-68
2021/04/15 00:51:40;;;;;;;23.00;3.60;;;29.80;10.30;;;;;;5098511;28;20117;-67
2021/04/15 00:54:15;;;;;;;19.95;4.07;;;29.80;10.60;;;;;;5095951;28;20091;-67
2021/04/15 00:56:42;;;;;;;16.83;3.53;;;29.50;11.80;;;;;;5098034;28;20100;-67
2021/04/15 00:59:08;;;;;;;29.85;4.53;;;29.30;11.80;;;;;;5098008;28;20113;-66
2021/04/15 01:01:35;;;;;;;20.20;3.75;;;29.20;11.70;;;;;;5098604;28;20088;-67
2021/04/15 01:04:02;;;;;;;17.33;3.63;;;29.00;12.00;;;;;;5094769;28;20096;-66
2021/04/15 01:06:29;;;;;;;18.08;3.88;;;28.80;12.20;;;;;;5077283;28;20100;-68
2021/04/15 01:08:59;;;;;;;25.92;5.32;;;28.50;12.40;;;;;;5098690;28;20072;-68
2021/04/15 01:11:56;;;;;;;16.10;3.45;;;28.50;12.50;;;;;;5100083;28;20075;-67
2021/04/15 01:14:23;;;;;;;26.85;3.95;;;28.30;12.50;;;;;;5095976;28;20085;-68
2021/04/15 01:17:13;;;;;;;26.65;4.18;;;28.20;12.50;;;;;;5096148;28;20072;-67
2021/04/15 01:20:02;;;;;;;18.85;3.47;;;28.30;12.60;;;;;;5077063;28;20081;-67
2021/04/15 01:22:37;;;;;;;21.60;3.45;;;28.10;12.40;;;;;;5097362;28;20557;-69
2021/04/15 01:25:29;;;;;;;17.25;3.70;;;28.00;12.80;;;;;;5095569;28;20432;-68
2021/04/15 01:28:09;;;;;;;16.20;3.35;;;27.90;13.50;;;;;;5099874;28;20143;-68
2021/04/15 01:30:42;;;;;;;15.48;4.55;;;27.70;13.80;;;;;;5102412;28;20096;-68
2021/04/15 01:33:20;;;;;;;23.20;3.80;;;27.60;14.10;;;;;;5104425;28;20084;-67
2021/04/15 01:35:58;;;;;;;17.92;3.25;;;27.60;14.40;;;;;;5105382;28;20076;-67
2021/04/15 01:38:50;;;;;;;24.70;3.80;;;27.50;14.70;;;;;;5104168;28;20540;-67
2021/04/15 01:41:24;;;;;;;27.17;4.05;;;27.40;14.80;;;;;;5094732;28;20163;-69
2021/04/15 01:43:57;;;;;;;21.20;3.83;;;27.30;15.10;;;;;;5104641;28;20549;-70
2021/04/15 01:46:29;;;;;;;22.65;4.30;;;27.30;15.20;;;;;;5105877;28;20088;-67
2021/04/15 01:49:00;;;;;;;25.92;4.57;;;27.10;15.70;;;;;;5103943;28;20064;-66
2021/04/15 01:51:39;;;;;;;17.58;4.05;;;27.00;15.90;;;;;;5107368;28;20072;-68
2021/04/15 01:54:20;;;;;;;12.75;3.45;;;26.90;15.90;;;;;;5106266;28;20546;-67
2021/04/15 01:56:57;;;;;;;16.83;3.60;;;26.80;15.80;;;;;;5108177;28;20151;-67
2021/04/15 01:59:56;;;;;;;22.05;3.85;;;26.70;15.90;;;;;;5106345;28;20082;-68
2021/04/15 02:03:02;;;;;;;13.98;3.80;;;26.70;16.10;;;;;;5059071;28;20087;-70
2021/04/15 02:05:33;;;;;;;22.35;4.80;;;26.50;16.30;;;;;;5086982;28;20175;-68
2021/04/15 02:08:05;;;;;;;24.73;10.00;;;26.50;16.60;;;;;;5102422;28;20638;-69
2021/04/15 02:10:34;;;;;;;25.80;5.72;;;26.40;16.50;;;;;;5101029;28;20556;-68
2021/04/15 02:13:05;;;;;;;19.20;3.90;;;26.30;16.40;;;;;;5105609;28;20479;-68
2021/04/15 02:15:53;;;;;;;21.05;4.57;;;26.20;16.70;;;;;;5100268;28;20096;-67
2021/04/15 02:18:27;;;;;;;22.95;3.75;;;26.10;16.80;;;;;;5102530;28;20481;-67
2021/04/15 02:21:02;;;;;;;22.55;3.80;;;26.10;16.70;;;;;;5104840;28;20072;-67
2021/04/15 02:23:34;;;;;;;19.83;3.67;;;26.00;16.90;;;;;;5104745;28;20095;-67
2021/04/15 02:26:06;;;;;;;20.15;3.70;;;25.90;16.90;;;;;;5103739;28;20068;-67
2021/04/15 02:29:03;;;;;;;20.65;3.70;;;25.90;17.10;;;;;;5102813;28;20083;-66
2021/04/15 02:31:41;;;;;;;22.35;3.55;;;25.80;17.40;;;;;;5102306;28;20087;-67
2021/04/15 02:34:13;;;;;;;15.30;3.65;;;25.70;17.60;;;;;;5101502;28;20079;-67
2021/04/15 02:37:08;;;;;;;17.55;3.70;;;25.50;17.80;;;;;;5098357;28;20096;-67
2021/04/15 02:39:43;;;;;;;22.27;3.65;;;25.60;17.90;;;;;;5101550;28;20101;-67
2021/04/15 02:42:14;;;;;;;21.17;3.85;;;25.40;18.00;;;;;;5080239;28;20072;-67
2021/04/15 02:44:49;;;;;;;14.90;3.95;;;25.20;18.10;;;;;;5101779;28;20085;-67
2021/04/15 02:47:20;;;;;;;17.13;3.97;;;25.30;18.40;;;;;;5102967;28;20095;-67
2021/04/15 02:49:51;;;;;;;20.13;4.10;;;25.20;18.40;;;;;;5101036;28;20118;-67
2021/04/15 02:52:22;;;;;;;25.52;5.13;;;25.10;18.50;;;;;;5096043;28;20079;-67
2021/04/15 02:55:04;;;;;;;16.13;3.97;;;25.00;19.00;;;;;;5099491;28;20064;-67
2021/04/15 02:57:39;;;;;;;18.10;4.05;;;25.00;19.40;;;;;;5099505;28;20068;-67
2021/04/15 03:00:50;;;;;;;17.10;3.97;;;24.90;19.50;;;;;;5097182;28;20087;-67
2021/04/15 03:03:23;;;;;;;18.65;4.07;;;24.70;19.80;;;;;;5090471;28;20100;-69
2021/04/15 03:05:57;;;;;;;22.25;3.53;;;24.60;20.20;;;;;;5098803;28;20070;-68
2021/04/15 03:08:26;;;;;;;24.88;4.03;;;24.50;20.30;;;;;;5092163;28;20076;-66
2021/04/15 03:11:04;;;;;;;28.90;4.35;;;24.40;20.50;;;;;;5077594;28;20096;-69
2021/04/15 03:13:36;;;;;;;24.50;3.97;;;24.10;20.70;;;;;;5099311;28;20116;-66
2021/04/15 03:16:06;;;;;;;20.15;3.60;;;24.10;21.10;;;;;;5093159;28;20072;-67
2021/04/15 03:18:43;;;;;;;25.83;4.53;;;24.00;21.20;;;;;;5100052;28;20073;-67
2021/04/15 03:21:33;;;;;;;23.30;3.97;;;23.70;21.60;;;;;;5098665;28;20121;-67
2021/04/15 03:24:22;;;;;;;27.02;3.90;;;23.70;21.90;;;;;;5076041;28;20122;-64
2021/04/15 03:27:03;;;;;;;28.95;4.13;;;23.60;22.00;;;;;;5092545;28;20072;-65
2021/04/15 03:29:40;;;;;;;31.92;4.65;;;23.40;22.30;;;;;;5099597;28;20166;-64
2021/04/15 03:32:22;;;;;;;19.25;3.55;;;23.30;22.20;;;;;;5094866;28;20068;-66
2021/04/15 03:35:07;;;;;;;26.02;4.88;;;23.30;22.10;;;;;;5097163;28;20077;-67
2021/04/15 03:38:01;;;;;;;32.60;4.40;;;23.10;22.10;;;;;;5096203;28;20468;-68
2021/04/15 03:40:31;;;;;;;21.25;3.72;;;23.10;21.80;;;;;;5100034;28;20076;-67
2021/04/15 03:43:11;;;;;;;17.40;3.72;;;23.00;21.60;;;;;;5099353;28;20096;-66
2021/04/15 03:46:03;;;;;;;30.55;4.47;;;23.00;21.90;;;;;;5079561;28;20601;-67
2021/04/15 03:48:35;;;;;;;23.13;4.15;;;22.80;21.60;;;;;;5098817;28;20080;-67
2021/04/15 03:51:12;;;;;;;17.42;3.33;;;22.70;21.70;;;;;;5101264;28;20123;-67
2021/04/15 03:53:59;;;;;;;;;;;22.70;21.40;;;;;;5097438;28;20537;-67
2021/04/15 03:56:32;;;;;;;16.40;3.53;;;22.70;20.20;;;;;;5101392;28;20435;-67
2021/04/15 03:59:08;;;;;;;15.45;2.88;;;22.80;19.30;;;;;;5095575;28;20585;-68
2021/04/15 04:01:41;;;;;;;21.65;4.22;;;22.80;18.90;;;;;;5101427;28;20080;-67
2021/04/15 04:04:30;;;;;;;19.38;4.65;;;22.80;19.90;;;;;;5100453;28;20103;-67
2021/04/15 04:07:02;;;;;;;21.63;5.53;;;22.80;21.60;;;;;;5079498;28;20068;-67
2021/04/15 04:09:42;;;;;;;17.55;4.60;;;22.60;21.90;;;;;;5096076;28;20079;-68
2021/04/15 04:12:17;;;;;;;15.50;4.30;;;22.60;22.40;;;;;;5098633;28;20108;-67
2021/04/15 04:15:15;;;;;;;18.02;6.18;;;22.50;21.60;;;;;;5098433;28;20201;-66
2021/04/15 04:18:01;;;;;;;21.02;5.95;;;22.40;22.00;;;;;;5083616;28;20068;-68
2021/04/15 04:20:36;;;;;;;21.67;4.30;;;22.30;21.90;;;;;;5078969;28;20171;-69
2021/04/15 04:23:26;;;;;;;18.52;3.20;;;22.30;22.00;;;;;;5096275;28;20120;-69
2021/04/15 04:26:09;;;;;;;17.08;3.17;;;22.20;22.10;;;;;;5100209;28;20073;-67
2021/04/15 04:29:06;;;;;;;18.02;3.38;;;22.20;22.30;;;;;;5100003;28;20167;-68
2021/04/15 04:31:40;;;;;;;19.17;3.47;;;22.10;22.70;;;;;;5098171;28;20558;-67
2021/04/15 04:34:07;;;;;;;17.70;4.13;;;22.10;23.10;;;;;;5095140;28;20072;-68
2021/04/15 04:36:36;;;;;;;22.90;3.97;;;21.90;23.60;;;;;;5098945;28;20077;-67
2021/04/15 04:39:06;;;;;;;19.50;3.80;;;21.80;24.20;;;;;;5098691;28;20641;-67
2021/04/15 04:42:06;;;;;;;19.13;3.60;;;21.80;24.60;;;;;;5102711;28;20099;-68
2021/04/15 04:44:48;;;;;;;20.98;3.55;;;21.80;24.70;;;;;;5099681;28;20175;-68
2021/04/15 04:47:51;;;;;;;27.17;4.65;;;21.70;23.50;;;;;;5099371;28;20076;-68
2021/04/15 04:50:26;;;;;;;22.45;4.05;;;21.60;23.50;;;;;;5096575;28;20079;-68
2021/04/15 04:53:02;;;;;;;20.50;4.25;;;21.60;24.20;;;;;;5098188;28;20075;-66
2021/04/15 04:56:04;;;;;;;11.70;3.05;;;21.50;23.70;;;;;;5095160;28;20072;-68
2021/04/15 04:58:31;;;;;;;23.27;4.70;;;21.40;23.20;;;;;;5093969;28;20985;-67
2021/04/15 05:00:58;;;;;;;20.55;3.88;;;21.40;22.10;;;;;;5077755;28;20432;-68
2021/04/15 05:03:27;;;;;;;18.05;3.97;;;21.40;22.00;;;;;;5076601;28;20183;-68
2021/04/15 05:06:22;;;;;;;20.95;4.03;;;21.20;21.80;;;;;;5096556;28;20521;-69
2021/04/15 05:09:18;;;;;;;22.58;3.67;;;21.30;22.50;;;;;;5095237;28;20080;-67
2021/04/15 05:11:47;;;;;;;21.05;3.70;;;21.10;22.50;;;;;;5095702;28;20072;-68
2021/04/15 05:14:20;;;;;;;15.63;3.25;;;21.10;22.60;;;;;;5099471;28;20160;-69
2021/04/15 05:16:59;;;;;;;25.00;3.70;;;21.10;22.60;;;;;;5095907;28;20071;-68
2021/04/15 05:19:27;;;;;;;24.73;3.42;;;21.00;23.00;;;;;;5100058;28;20100;-69
2021/04/15 05:21:55;;;;;;;18.48;3.67;;;20.90;22.30;;;;;;5101392;28;20445;-67
2021/04/15 05:24:26;;;;;;;29.90;3.95;;;20.90;21.50;;;;;;5097509;28;20578;-68
2021/04/15 05:26:57;;;;;;;25.92;4.57;;;20.80;20.50;;;;;;5099433;28;20468;-68
2021/04/15 05:29:30;;;;;;;31.70;3.60;;;20.90;20.40;;;;;;5098901;28;20484;-67
2021/04/15 05:31:58;;;;;;;32.97;4.60;;;20.80;20.60;;;;;;5080357;28;20073;-68
2021/04/15 05:34:36;;;;;;;31.88;4.32;;;20.80;21.10;;;;;;5094112;28;20065;-67
2021/04/15 05:37:08;;;;;;;22.95;3.63;;;20.70;21.50;;;;;;5096398;28;20065;-67
2021/04/15 05:39:36;;;;;;;28.98;4.50;;;20.60;21.90;;;;;;5096987;28;20110;-67
2021/04/15 05:42:33;;;;;;;27.92;5.07;;;20.60;22.00;;;;;;5098518;28;20069;-67
2021/04/15 05:45:07;;;;;;;15.15;3.55;;;20.40;22.40;;;;;;5092565;28;20155;-67
2021/04/15 05:47:48;;;;;;;29.27;3.85;;;20.30;22.20;;;;;;5096482;28;20163;-67
2021/04/15 05:50:24;;;;;;;23.23;4.50;;;20.20;22.00;;;;;;5094209;28;20252;-67
2021/04/15 05:53:05;;;;;;;31.45;3.83;;;20.20;21.60;;;;;;5094526;28;20068;-67
2021/04/15 05:55:51;;;;;;;20.70;3.22;;;20.10;21.00;;;;;;5097126;28;20567;-67
2021/04/15 05:58:29;;;;;;;17.85;5.40;;;20.10;20.70;;;;;;5096392;28;20080;-67
2021/04/15 06:01:18;;;;;;;18.20;4.82;;;20.00;20.40;;;;;;5079983;28;20073;-68
2021/04/15 06:04:06;;;;;;;19.48;4.45;;;20.00;20.40;;;;;;5096582;28;20128;-68
2021/04/15 06:06:37;;;;;;;12.30;3.95;;;20.00;19.50;;;;;;5095392;28;20730;-67
2021/04/15 06:09:05;;;;;;;17.67;4.13;;;20.00;20.30;;;;;;5097330;28;20077;-67
2021/04/15 06:11:42;;;;;;;29.90;3.47;;;20.30;29.90;;;;;;5096995;28;20386;-67
2021/04/15 06:14:32;;;;;;;23.40;3.70;;;20.00;18.80;;;;;;5099796;28;20081;-67
2021/04/15 06:17:28;;;;;;;16.27;3.08;;;19.90;20.50;;;;;;5102668;28;20076;-67
2021/04/15 06:20:25;;;;;;;16.17;2.92;;;20.00;18.60;;;;;;5093889;28;20080;-68
2021/04/15 06:22:57;;;;;;;11.77;2.67;;;20.10;18.40;;;;;;5097032;28;20109;-66
2021/04/15 06:25:31;;;;;;;16.70;3.15;;;20.00;18.40;;;;;;5101873;27;20160;-67
2021/04/15 06:28:03;;;;;;;18.25;2.25;;;20.00;18.20;;;;;;5101275;28;20107;-67
2021/04/15 06:31:15;;;;;;;16.85;2.67;;;20.00;18.10;;;;;;5099065;28;20079;-67
2021/04/15 06:33:43;;;;;;;15.32;2.58;;;20.00;18.40;;;;;;5010557;28;20082;-68
2021/04/15 06:36:28;;;;;;;12.30;2.35;;;19.90;18.60;;;;;;5009183;28;20920;-66
2021/04/15 06:39:04;;;;;;;20.48;2.72;;;19.80;18.40;;;;;;5070975;28;20532;-67
2021/04/15 06:42:16;;;;;;;20.73;3.10;;;19.80;18.50;;;;;;5097915;28;20084;-67
2021/04/15 06:44:48;;;;;;;13.63;2.65;;;19.80;18.50;;;;;;5075263;28;20182;-67
2021/04/15 06:47:33;;;;;;;10.90;2.50;;;19.70;18.80;;;;;;5101022;28;20118;-67
2021/04/15 06:50:08;;;;;;;13.98;2.50;;;19.70;18.80;;;;;;5099579;28;20414;-67
2021/04/15 06:52:59;;;;;;;11.95;2.13;;;19.80;23.70;;;;;;5094208;28;20081;-66
2021/04/15 06:55:42;;;;;;;11.38;2.53;;;19.20;29.60;;;;;;5099168;28;20117;-66
2021/04/15 06:58:35;;;;;;;16.02;2.65;;;19.70;18.90;;;;;;5097408;28;20065;-66
2021/04/15 07:01:23;;;;;;;11.27;2.35;;;19.60;19.10;;;;;;5101427;28;20142;-66
2021/04/15 07:04:12;;;;;;;22.45;2.60;;;19.50;38.00;;;;;;5096166;28;20116;-67
2021/04/15 07:07:06;;;;;;;21.73;3.00;;;19.50;19.50;;;;;;5089545;28;20447;-67
2021/04/15 07:09:42;;;;;;;18.92;2.47;;;19.50;19.70;;;;;;5100389;28;20103;-66
2021/04/15 07:12:46;;;;;;;16.63;2.72;;;19.50;20.10;;;;;;5096220;28;20092;-66
2021/04/15 07:15:42;;;;;;;17.42;2.72;;;19.40;20.60;;;;;;5097429;28;20069;-66
2021/04/15 07:18:35;;;;;;;15.63;3.20;;;19.40;21.20;;;;;;5100620;28;20092;-66
2021/04/15 07:21:12;;;;;;;12.93;2.67;;;19.20;21.40;;;;;;5099097;28;20555;-66
2021/04/15 07:24:17;;;;;;;20.90;4.38;;;19.20;21.80;;;;;;5095295;28;20123;-66
2021/04/15 07:26:52;;;;;;;12.40;2.90;;;19.10;21.70;;;;;;5099912;28;20163;-67
2021/04/15 07:29:29;;;;;;;12.30;2.40;;;19.00;21.50;;;;;;5096367;28;20080;-67
2021/04/15 07:32:04;;;;;;;9.75;2.35;;;19.00;21.60;;;;;;5100390;28;20608;-67
2021/04/15 07:34:42;;;;;;;12.90;3.00;;;18.90;21.20;;;;;;5101519;28;20144;-66
2021/04/15 07:37:45;;;;;;;15.13;3.38;;;18.90;21.10;;;;;;5097864;28;20076;-66
2021/04/15 07:40:53;;;;;;;12.23;2.72;;;18.80;20.80;;;;;;5096219;28;20083;-66
2021/04/15 07:43:53;;;;;;;11.32;2.35;;;18.80;20.50;;;;;;5094939;28;20108;-67
2021/04/15 07:46:33;;;;;;;18.10;3.53;;;18.80;20.40;;;;;;5098193;28;20505;-67
2021/04/15 07:49:36;;;;;;;14.32;2.88;;;18.80;20.40;;;;;;5097976;28;20109;-67
2021/04/15 07:52:09;;;;;;;9.70;3.25;;;18.80;20.60;;;;;;5100193;28;20079;-67
2021/04/15 07:54:54;;;;;;;18.98;3.60;;;18.70;20.80;;;;;;5095812;28;20076;-66
2021/04/15 07:57:30;;;;;;;11.77;3.53;;;18.60;20.70;;;;;;5093130;28;20497;-66
2021/04/15 08:00:18;;;;;;;19.48;3.65;;;18.70;20.80;;;;;;5093644;28;20071;-66
2021/04/15 08:02:55;;;;;;;11.57;2.60;;;18.70;21.00;;;;;;5096042;28;20463;-65
2021/04/15 08:05:48;;;;;;;10.88;3.00;;;18.70;21.30;;;;;;5079713;28;20080;-64
2021/04/15 08:09:02;;;;;;;13.32;2.45;;;18.60;21.60;;;;;;5085381;28;20073;-63
2021/04/15 08:12:16;;;;;;;14.65;3.35;;;18.60;21.80;;;;;;5075458;28;20089;-63
2021/04/15 08:15:16;;;;;;;8.85;2.13;;;18.50;22.10;;;;;;5028799;28;20103;-63
2021/04/15 08:18:23;;;;;;;8.90;2.42;;;18.50;22.20;;;;;;5094049;28;20100;-64
2021/04/15 08:21:04;;;;;;;13.23;3.17;;;18.40;22.30;;;;;;5080251;28;20087;-64
2021/04/15 08:23:59;;;;;;;13.25;2.83;;;18.40;22.20;;;;;;5095033;28;20119;-64
2021/04/15 08:27:00;;;;;;;10.77;2.22;;;18.40;22.40;;;;;;5077458;28;20085;-63
2021/04/15 08:30:05;;;;;;;15.00;2.92;;;18.40;22.20;;;;;;5093591;28;20436;-64
2021/04/15 08:33:04;;;;;;;14.73;2.72;;;18.30;22.50;;;;;;5095595;28;20084;-64
2021/04/15 08:36:01;;;;;;;14.52;2.60;;;18.30;22.40;;;;;;5091270;28;20064;-63
2021/04/15 08:39:19;;;;;;;13.40;2.67;;;18.30;22.10;;;;;;5096562;28;20471;-64
2021/04/15 08:42:24;;;;;;;9.55;2.58;;;18.20;22.10;;;;;;5091653;28;20345;-64
2021/04/15 08:45:10;;;;;;;14.52;2.45;;;18.10;22.10;;;;;;5094322;28;20096;-64
2021/04/15 08:48:03;;;;;;;15.95;2.60;;;18.10;22.10;;;;;;5093904;28;20491;-65
2021/04/15 08:50:43;;;;;;;11.45;3.05;;;18.10;21.90;;;;;;5095485;28;20108;-64
2021/04/15 08:54:03;;;;;;;11.05;2.40;;;18.10;23.10;;;;;;5093332;28;20068;-64
2021/04/15 08:56:40;;;;;;;11.48;2.40;;;18.20;21.20;;;;;;5045328;28;20407;-64
2021/04/15 08:59:20;;;;;;;10.73;2.35;;;18.20;20.90;;;;;;5031180;28;20088;-64
2021/04/15 09:02:19;;;;;;;15.50;2.50;;;18.30;20.90;;;;;;5084728;28;20133;-64
2021/04/15 09:04:58;;;;;;;23.77;2.97;;;18.30;20.50;;;;;;5063210;28;20595;-64
2021/04/15 09:07:57;;;;;;;19.10;3.03;;;18.30;21.30;;;;;;5093720;28;20084;-64
2021/04/15 09:10:38;;;;;;;18.77;2.75;;;18.30;20.80;;;;;;5095513;28;20092;-67
2021/04/15 09:13:25;;;;;;;16.23;2.38;;;18.30;20.50;;;;;;5097799;28;20151;-66
2021/04/15 09:16:19;;;;;;;14.70;2.40;;;18.30;20.60;;;;;;5094419;28;20077;-66
2021/04/15 09:18:55;;;;;;;9.43;2.47;;;18.30;20.60;;;;;;5097851;28;20541;-66
2021/04/15 09:21:47;;;;;;;11.90;2.08;;;18.30;20.80;;;;;;5095717;28;20099;-66
2021/04/15 09:24:14;;;;;;;9.55;2.00;;;18.20;21.00;;;;;;5096037;28;20088;-66
2021/04/15 09:27:21;;;;;;;10.77;2.88;;;18.10;21.30;;;;;;5096623;28;20074;-66
2021/04/15 09:29:52;;;;;;;7.28;2.10;;;18.10;21.80;;;;;;5097270;28;20080;-66
2021/04/15 09:32:20;;;;;;;9.63;2.00;;;18.10;22.10;;;;;;5095883;28;20071;-67
2021/04/15 09:35:13;;;;;;;21.08;2.45;;;18.10;22.30;;;;;;5095186;28;20130;-67
2021/04/15 09:38:02;;;;;;;10.32;2.17;;;18.10;22.50;;;;;;5096957;28;20080;-66
2021/04/15 09:40:57;;;;;;;12.63;2.63;;;18.00;22.10;;;;;;5095823;28;20069;-66
2021/04/15 09:43:38;;;;;;;6.47;2.10;;;17.90;21.90;;;;;;5092830;28;20187;-64
2021/04/15 09:46:33;;;;;;;10.32;2.30;;;17.90;22.00;;;;;;5092466;28;21252;-66
2021/04/15 09:49:06;;;;;;;10.20;2.35;;;17.80;21.90;;;;;;5099690;28;20072;-66
2021/04/15 09:51:51;;;;;;;75.38;5.32;;;17.80;22.00;;;;;;5079352;28;20076;-66
2021/04/15 09:54:42;;;;;;;11.60;2.65;;;17.80;22.80;;;;;;5101210;28;20072;-66
2021/04/15 09:57:28;;;;;;;12.45;2.58;;;17.80;24.40;;;;;;5095057;28;20545;-66
2021/04/15 10:00:15;;;;;;;11.13;2.38;;;17.70;24.40;;;;;;5100678;28;20154;-66
2021/04/15 10:03:02;;;;;;;13.88;2.38;;;17.70;24.10;;;;;;5097682;28;20482;-66
2021/04/15 10:05:38;;;;;;;11.40;2.47;;;17.60;23.90;;;;;;5085659;28;20085;-66
2021/04/15 10:08:29;;;;;;;11.17;2.63;;;17.60;23.90;;;;;;5098208;28;20114;-65
2021/04/15 10:11:24;;;;;;;15.57;3.35;;;17.60;23.50;;;;;;5096122;28;20320;-65
2021/04/15 10:14:29;;;;;;;9.95;2.40;;;17.60;24.00;;;;;;5098359;28;20122;-67
2021/04/15 10:17:22;;;;;;;18.65;3.05;;;17.60;24.10;;;;;;5097898;28;20167;-65
2021/04/15 10:20:16;;;;;;;14.32;3.00;;;17.40;26.40;;;;;;5097421;28;20406;-65
2021/04/15 10:23:20;;;;;;;13.95;3.25;;;17.10;27.80;;;;;;5097967;28;20072;-65
2021/04/15 10:25:56;;;;;;;17.30;3.53;;;17.00;28.70;;;;;;5098197;28;20080;-65
2021/04/15 10:28:34;;;;;;;14.85;3.22;;;16.90;29.40;;;;;;5095639;28;20084;-64
2021/04/15 10:31:28;;;;;;;13.63;3.00;;;16.90;30.00;;;;;;5102097;28;20077;-64
2021/04/15 10:34:22;;;;;;;18.73;3.42;;;16.70;30.20;;;;;;5100907;28;20084;-64
2021/04/15 10:36:55;;;;;;;14.05;3.65;;;16.70;30.60;;;;;;5098579;28;20427;-64
2021/04/15 10:39:43;;;;;;;16.35;2.85;;;16.60;30.40;;;;;;5098667;28;20441;-64
2021/04/15 10:42:46;;;;;;;16.98;3.03;;;16.50;30.50;;;;;;5096384;28;20178;-64
2021/04/15 10:45:28;;;;;;;13.73;3.00;;;16.50;31.00;;;;;;5101163;28;20084;-64
2021/04/15 10:48:43;;;;;;;17.80;3.00;;;16.50;30.80;;;;;;5098740;28;20061;-63
2021/04/15 10:51:28;;;;;;;14.63;2.67;;;16.50;30.60;;;;;;5040915;28;20419;-64
2021/04/15 10:54:02;;;;;;;15.00;2.75;;;16.40;30.60;;;;;;5101134;28;20560;-64
2021/04/15 10:56:33;;;;;;;10.43;2.25;;;16.20;30.30;;;;;;5099797;28;20088;-64
2021/04/15 10:59:03;;;;;;;10.63;2.35;;;16.10;30.10;;;;;;5095483;28;20087;-65
2021/04/15 11:01:44;;;;;;;12.00;2.88;;;16.10;29.90;;;;;;5097290;28;20441;-65
2021/04/15 11:04:10;;;;;;;17.33;3.05;;;16.10;29.80;;;;;;5101509;28;20217;-65
2021/04/15 11:06:44;;;;;;;17.20;2.92;;;16.10;29.70;;;;;;5097287;28;20103;-64
2021/04/15 11:09:40;;;;;;;10.93;2.80;;;16.00;29.90;;;;;;5097889;28;20072;-65
2021/04/15 11:12:16;;;;;;;17.20;2.90;;;15.90;30.10;;;;;;5097374;28;20113;-65
2021/04/15 11:14:46;;;;;;;11.02;2.80;;;15.90;30.60;;;;;;5096023;28;20107;-64
2021/04/15 11:17:18;;;;;;;17.10;2.78;;;16.00;30.60;;;;;;5095638;28;20111;-65
2021/04/15 11:19:46;;;;;;;10.57;3.00;;;16.10;69.90;;;;;;5098655;28;20057;-65
2021/04/15 11:22:30;;;;;;;10.25;2.70;;;16.10;30.80;;;;;;5098176;28;20126;-64
2021/04/15 11:25:16;;;;;;;15.18;3.35;;;16.10;31.50;;;;;;5098315;28;20104;-65
2021/04/15 11:27:42;;;;;;;13.02;3.00;;;16.20;31.90;;;;;;5096926;28;20064;-64
2021/04/15 11:30:27;;;;;;;17.15;4.40;;;16.10;31.20;;;;;;5096487;28;20529;-65
2021/04/15 11:32:53;;;;;;;14.48;3.40;;;16.10;31.50;;;;;;5095615;28;20151;-64
2021/04/15 11:35:22;;;;;;;13.95;3.40;;;16.10;31.60;;;;;;5096472;28;20444;-64
2021/04/15 11:38:03;;;;;;;14.77;3.40;;;16.10;31.30;;;;;;5092837;28;20081;-64
2021/04/15 11:40:46;;;;;;;17.20;2.90;;;16.00;31.40;;;;;;5100091;28;20084;-64
2021/04/15 11:43:22;;;;;;;15.15;3.60;;;15.90;31.60;;;;;;5098624;28;20093;-64
2021/04/15 11:45:49;;;;;;;12.25;3.00;;;15.70;33.00;;;;;;5095936;28;20077;-64
2021/04/15 11:48:24;;;;;;;18.98;3.53;;;15.80;30.00;;;;;;5096278;28;20084;-64
2021/04/15 11:51:09;;;;;;;15.10;3.20;;;15.80;30.20;;;;;;5101716;28;20080;-65
2021/04/15 11:53:39;;;;;;;11.43;3.15;;;15.80;32.00;;;;;;5079033;28;20080;-65
2021/04/15 11:56:23;;;;;;;11.60;3.08;;;15.90;30.10;;;;;;5100336;28;20091;-65
2021/04/15 11:58:51;;;;;;;14.02;2.50;;;15.90;30.20;;;;;;5097021;28;20069;-65
2021/04/15 12:01:28;;;;;;;6.65;1.98;;;15.80;29.90;;;;;;5080702;28;20073;-64
2021/04/15 12:04:07;;;;;;;7.27;2.40;;;15.80;29.80;;;;;;5093920;28;20234;-65
2021/04/15 12:06:41;;;;;;;9.40;2.00;;;15.70;30.00;;;;;;5096925;28;20435;-64
2021/04/15 12:09:13;;;;;;;13.00;2.50;;;15.80;30.30;;;;;;5097343;28;20080;-64
2021/04/15 12:12:28;;;;;;;13.32;2.92;;;15.80;30.40;;;;;;5099376;28;20171;-64
2021/04/15 12:14:55;;;;;;;8.45;1.95;;;15.80;30.40;;;;;;5090775;28;20092;-64
2021/04/15 12:17:39;;;;;;;9.10;2.67;;;15.80;30.50;;;;;;5100125;28;20525;-65
2021/04/15 12:20:30;;;;;;;8.80;2.72;;;15.70;30.70;;;;;;5097023;28;20075;-65
2021/04/15 12:23:35;;;;;;;12.35;2.15;;;15.80;31.10;;;;;;5098719;28;20474;-65
2021/04/15 12:26:06;;;;;;;12.82;2.72;;;15.80;31.20;;;;;;5032166;28;20540;-65
2021/04/15 12:28:35;;;;;;;12.93;2.53;;;15.80;31.20;;;;;;5098350;28;20517;-65
2021/04/15 12:31:30;;;;;;;11.65;2.65;;;15.80;31.30;;;;;;5097552;28;20151;-65
2021/04/15 12:34:16;;;;;;;13.15;2.33;;;15.70;42.10;;;;;;5098907;28;20637;-65
2021/04/15 12:36:54;;;;;;;15.00;2.45;;;15.90;31.10;;;;;;5057981;28;20542;-65
2021/04/15 12:39:24;;;;;;;13.13;2.95;;;15.90;31.00;;;;;;5094912;28;20047;-65
2021/04/15 12:41:52;;;;;;;19.63;2.83;;;16.00;39.70;;;;;;5096978;28;20072;-64
2021/04/15 12:44:25;;;;;;;14.73;3.42;;;15.90;31.10;;;;;;5093688;28;20095;-65
2021/04/15 12:46:55;;;;;;;13.63;2.50;;;15.90;31.60;;;;;;5097046;28;20098;-65
2021/04/15 12:49:26;;;;;;;15.38;2.80;;;16.00;31.50;;;;;;5095910;28;20110;-65
2021/04/15 12:51:58;;;;;;;11.73;2.65;;;16.10;31.60;;;;;;5093693;28;20148;-65
2021/04/15 12:54:34;;;;;;;14.38;3.05;;;16.10;31.10;;;;;;5096579;28;20081;-65
2021/04/15 12:57:06;;;;;;;17.58;2.47;;;16.10;32.10;;;;;;5097700;28;20076;-65
2021/04/15 12:59:54;;;;;;;12.52;2.60;;;16.10;31.70;;;;;;5097911;28;20068;-65
2021/04/15 13:02:22;;;;;;;;;;;16.10;31.60;;;;;;5097529;28;20416;-65
2021/04/15 13:04:53;;;;;;;15.73;2.40;;;15.90;31.70;;;;;;5096586;28;19981;-65
2021/04/15 13:07:23;;;;;;;10.20;2.58;;;15.90;31.50;;;;;;5098846;28;20531;-65
2021/04/15 13:10:18;;;;;;;13.60;2.30;;;15.90;32.00;;;;;;5093808;28;20081;-65
2021/04/15 13:12:53;;;;;;;18.83;2.88;;;15.80;32.20;;;;;;5091246;28;20187;-66
2021/04/15 13:15:26;;;;;;;17.75;2.58;;;15.90;31.50;;;;;;5092480;28;20430;-65
2021/04/15 13:17:53;;;;;;;14.00;3.00;;;15.50;41.10;;;;;;5100825;28;20152;-66
2021/04/15 13:20:19;;;;;;;14.00;2.40;;;16.00;31.50;;;;;;5093602;28;20068;-66
2021/04/15 13:23:09;;;;;;;11.60;2.72;;;16.00;31.50;;;;;;5097508;28;20077;-65
2021/04/15 13:25:50;;;;;;;13.60;2.47;;;16.00;31.00;;;;;;5093791;28;20134;-65
2021/04/15 13:28:24;;;;;;;23.15;3.45;;;16.00;31.30;;;;;;5092768;28;20416;-66
2021/04/15 13:30:57;;;;;;;11.88;2.70;;;16.00;30.90;;;;;;5095884;28;20076;-65
2021/04/15 13:34:01;;;;;;;17.17;3.00;;;16.00;30.40;;;;;;5098638;28;20106;-65
2021/04/15 13:36:27;;;;;;;15.30;2.70;;;16.10;30.30;;;;;;5099612;28;20091;-64
2021/04/15 13:38:57;;;;;;;10.95;2.25;;;16.20;30.30;;;;;;5096717;28;20087;-64
2021/04/15 13:41:29;;;;;;;14.27;2.88;;;16.20;30.30;;;;;;5096478;28;20073;-66
2021/04/15 13:44:09;;;;;;;20.40;3.63;;;16.20;30.80;;;;;;5093057;28;20157;-65
2021/04/15 13:46:44;;;;;;;18.60;3.17;;;16.30;30.70;;;;;;5095385;28;20220;-65
2021/04/15 13:49:21;;;;;;;14.68;2.92;;;16.90;50.40;;;;;;5096342;28;20078;-65